sensor_id;sensor_type;location;lat;lon;timestamp;temperature;humidity
18717;DHT22;9487;50.892;6.906;2022-10-16T00:00:36;15.00;99.90
18717;DHT22;9487;50.892;6.906;2022-10-16T00:03:03;14.90;99.90
18717;DHT22;9487;50.892;6.906;2022-10-16T00:05:30;14.80;99.90
18717;DHT22;9487;50.892;6.906;2022-10-16T00:07:57;14.80;99.90
18717;DHT22;9487;50.892;6.906;2022-10-16T00:10:25;14.80;99.90
18717;DHT22;9487;50.892;6.906;2022-10-16T00:12:52;14.70;99.90
18717;DHT22;9487;50.892;6.906;2022-10-16T00:15:19;14.70;99.90
18717;DHT22;9487;50.892;6.906;2022-10-16T00:17:45;14.70;99.90
18717;DHT22;9487;50.892;6.906;2022-10-16T00:20:12;14.70;99.90
18717;DHT22;9487;50.892;6.906;2022-10-16T00:22:39;14.70;99.90
18717;DHT22;9487;50.892;6.906;2022-10-16T00:25:07;14.70;99.90
18717;DHT22;9487;50.892;6.906;2022-10-16T00:27:35;14.70;99.90
18717;DHT22;9487;50.892;6.906;2022-10-16T00:30:02;14.60;99.90
18717;DHT22;9487;50.892;6.906;2022-10-16T00:32:29;14.60;99.90
18717;DHT22;9487;50.892;6.906;2022-10-16T00:34:56;14.60;99.90
18717;DHT22;9487;50.892;6.906;2022-10-16T00:37:23;14.70;99.90
18717;DHT22;9487;50.892;6.906;2022-10-16T00:39:50;14.60;99.90
18717;DHT22;9487;50.892;6.906;2022-10-16T00:42:18;14.60;99.90
18717;DHT22;9487;50.892;6.906;2022-10-16T00:44:49;14.60;99.90
18717;DHT22;9487;50.892;6.906;2022-10-16T00:47:21;14.70;99.90
18717;DHT22;9487;50.892;6.906;2022-10-16T00:49:50;14.60;99.90
18717;DHT22;9487;50.892;6.906;2022-10-16T00:52:18;14.60;99.90
18717;DHT22;9487;50.892;6.906;2022-10-16T00:54:46;14.60;99.90
18717;DHT22;9487;50.892;6.906;2022-10-16T00:57:13;14.50;99.90
18717;DHT22;9487;50.892;6.906;2022-10-16T00:59:41;14.60;99.90
18717;DHT22;9487;50.892;6.906;2022-10-16T01:02:13;14.50;99.90
18717;DHT22;9487;50.892;6.906;2022-10-16T01:04:42;14.60;99.90
18717;DHT22;9487;50.892;6.906;2022-10-16T01:07:14;14.60;99.90
18717;DHT22;9487;50.892;6.906;2022-10-16T01:09:51;14.50;99.90
18717;DHT22;9487;50.892;6.906;2022-10-16T01:12:25;14.40;99.90
18717;DHT22;9487;50.892;6.906;2022-10-16T01:14:58;14.40;99.90
18717;DHT22;9487;50.892;6.906;2022-10-16T01:17:32;14.50;99.90
18717;DHT22;9487;50.892;6.906;2022-10-16T01:20:07;14.60;99.90
18717;DHT22;9487;50.892;6.906;2022-10-16T01:22:43;14.40;99.90
18717;DHT22;9487;50.892;6.906;2022-10-16T01:25:22;14.30;99.90
18717;DHT22;9487;50.892;6.906;2022-10-16T01:27:53;14.30;99.90
18717;DHT22;9487;50.892;6.906;2022-10-16T01:30:23;14.30;99.90
18717;DHT22;9487;50.892;6.906;2022-10-16T01:32:56;14.20;99.90
18717;DHT22;9487;50.892;6.906;2022-10-16T01:35:26;14.20;99.90
18717;DHT22;9487;50.892;6.906;2022-10-16T01:37:58;14.20;99.90
18717;DHT22;9487;50.892;6.906;2022-10-16T01:40:27;14.10;99.90
18717;DHT22;9487;50.892;6.906;2022-10-16T01:43:00;14.20;99.90
18717;DHT22;9487;50.892;6.906;2022-10-16T01:45:29;14.20;99.90
18717;DHT22;9487;50.892;6.906;2022-10-16T01:47:57;14.20;99.90
18717;DHT22;9487;50.892;6.906;2022-10-16T01:50:25;14.20;99.90
18717;DHT22;9487;50.892;6.906;2022-10-16T01:52:55;14.20;99.90
18717;DHT22;9487;50.892;6.906;2022-10-16T01:55:25;14.20;99.90
18717;DHT22;9487;50.892;6.906;2022-10-16T01:57:56;14.10;99.90
18717;DHT22;9487;50.892;6.906;2022-10-16T02:00:26;14.00;99.90
18717;DHT22;9487;50.892;6.906;2022-10-16T02:02:54;14.10;99.90
18717;DHT22;9487;50.892;6.906;2022-10-16T02:05:25;14.00;99.90
18717;DHT22;9487;50.892;6.906;2022-10-16T02:07:53;14.10;99.90
18717;DHT22;9487;50.892;6.906;2022-10-16T02:10:20;14.10;99.90
18717;DHT22;9487;50.892;6.906;2022-10-16T02:12:56;14.00;99.90
18717;DHT22;9487;50.892;6.906;2022-10-16T02:15:25;14.00;99.90
18717;DHT22;9487;50.892;6.906;2022-10-16T02:17:52;14.00;99.90
18717;DHT22;9487;50.892;6.906;2022-10-16T02:20:25;14.00;99.90
18717;DHT22;9487;50.892;6.906;2022-10-16T02:22:52;14.00;99.90
18717;DHT22;9487;50.892;6.906;2022-10-16T02:25:24;14.00;99.90
18717;DHT22;9487;50.892;6.906;2022-10-16T02:27:54;14.00;99.90
18717;DHT22;9487;50.892;6.906;2022-10-16T02:30:27;14.10;99.90
18717;DHT22;9487;50.892;6.906;2022-10-16T02:32:56;14.20;99.90
18717;DHT22;9487;50.892;6.906;2022-10-16T02:35:24;14.10;99.90
18717;DHT22;9487;50.892;6.906;2022-10-16T02:37:53;14.20;99.90
18717;DHT22;9487;50.892;6.906;2022-10-16T02:40:20;14.20;99.90
18717;DHT22;9487;50.892;6.906;2022-10-16T02:42:51;14.20;99.90
18717;DHT22;9487;50.892;6.906;2022-10-16T02:45:18;14.20;99.90
18717;DHT22;9487;50.892;6.906;2022-10-16T02:47:47;14.20;99.90
18717;DHT22;9487;50.892;6.906;2022-10-16T02:50:14;14.20;99.90
18717;DHT22;9487;50.892;6.906;2022-10-16T02:52:40;14.30;99.90
18717;DHT22;9487;50.892;6.906;2022-10-16T02:55:08;14.30;99.90
18717;DHT22;9487;50.892;6.906;2022-10-16T02:57:34;14.40;99.90
18717;DHT22;9487;50.892;6.906;2022-10-16T03:00:03;14.30;99.90
18717;DHT22;9487;50.892;6.906;2022-10-16T03:02:30;14.30;99.90
18717;DHT22;9487;50.892;6.906;2022-10-16T03:04:58;14.30;99.90
18717;DHT22;9487;50.892;6.906;2022-10-16T03:07:25;14.30;99.90
18717;DHT22;9487;50.892;6.906;2022-10-16T03:09:52;14.20;99.90
18717;DHT22;9487;50.892;6.906;2022-10-16T03:12:20;14.30;99.90
18717;DHT22;9487;50.892;6.906;2022-10-16T03:14:46;14.30;99.90
18717;DHT22;9487;50.892;6.906;2022-10-16T03:17:13;14.30;99.90
18717;DHT22;9487;50.892;6.906;2022-10-16T03:19:42;14.30;99.90
18717;DHT22;9487;50.892;6.906;2022-10-16T03:22:10;14.30;99.90
18717;DHT22;9487;50.892;6.906;2022-10-16T03:24:37;14.20;99.90
18717;DHT22;9487;50.892;6.906;2022-10-16T03:27:04;14.10;99.90
18717;DHT22;9487;50.892;6.906;2022-10-16T03:29:31;14.10;99.90
18717;DHT22;9487;50.892;6.906;2022-10-16T03:31:59;14.10;99.90
18717;DHT22;9487;50.892;6.906;2022-10-16T03:34:26;14.10;99.90
18717;DHT22;9487;50.892;6.906;2022-10-16T03:36:53;14.20;99.90
18717;DHT22;9487;50.892;6.906;2022-10-16T03:39:21;14.20;99.90
18717;DHT22;9487;50.892;6.906;2022-10-16T03:41:48;14.20;99.90
18717;DHT22;9487;50.892;6.906;2022-10-16T03:44:15;14.20;99.90
18717;DHT22;9487;50.892;6.906;2022-10-16T03:46:42;14.20;99.90
18717;DHT22;9487;50.892;6.906;2022-10-16T03:49:08;14.20;99.90
18717;DHT22;9487;50.892;6.906;2022-10-16T03:51:35;14.10;99.90
18717;DHT22;9487;50.892;6.906;2022-10-16T03:54:02;14.20;99.90
18717;DHT22;9487;50.892;6.906;2022-10-16T03:56:31;14.20;99.90
18717;DHT22;9487;50.892;6.906;2022-10-16T03:58:57;14.20;99.90
18717;DHT22;9487;50.892;6.906;2022-10-16T04:01:24;14.10;99.90
18717;DHT22;9487;50.892;6.906;2022-10-16T04:03:51;14.10;99.90
18717;DHT22;9487;50.892;6.906;2022-10-16T04:06:18;14.10;99.90
18717;DHT22;9487;50.892;6.906;2022-10-16T04:08:44;14.20;99.90
18717;DHT22;9487;50.892;6.906;2022-10-16T04:11:11;14.30;99.90
18717;DHT22;9487;50.892;6.906;2022-10-16T04:13:39;14.30;99.90
18717;DHT22;9487;50.892;6.906;2022-10-16T04:16:07;14.30;99.90
18717;DHT22;9487;50.892;6.906;2022-10-16T04:18:33;14.20;99.90
18717;DHT22;9487;50.892;6.906;2022-10-16T04:21:03;14.20;99.90
18717;DHT22;9487;50.892;6.906;2022-10-16T04:23:29;14.30;99.90
18717;DHT22;9487;50.892;6.906;2022-10-16T04:25:56;14.20;99.90
18717;DHT22;9487;50.892;6.906;2022-10-16T04:28:23;14.20;99.90
18717;DHT22;9487;50.892;6.906;2022-10-16T04:30:51;14.20;99.90
18717;DHT22;9487;50.892;6.906;2022-10-16T04:33:18;14.30;99.90
18717;DHT22;9487;50.892;6.906;2022-10-16T04:35:45;14.30;99.90
18717;DHT22;9487;50.892;6.906;2022-10-16T04:38:11;14.30;99.90
18717;DHT22;9487;50.892;6.906;2022-10-16T04:40:38;14.30;99.90
18717;DHT22;9487;50.892;6.906;2022-10-16T04:43:05;14.40;99.90
18717;DHT22;9487;50.892;6.906;2022-10-16T04:45:32;14.30;99.90
18717;DHT22;9487;50.892;6.906;2022-10-16T04:48:01;14.30;99.90
18717;DHT22;9487;50.892;6.906;2022-10-16T04:50:27;14.30;99.90
18717;DHT22;9487;50.892;6.906;2022-10-16T04:52:54;14.30;99.90
18717;DHT22;9487;50.892;6.906;2022-10-16T04:55:21;14.30;99.90
18717;DHT22;9487;50.892;6.906;2022-10-16T04:57:48;14.20;99.90
18717;DHT22;9487;50.892;6.906;2022-10-16T05:00:15;14.30;99.90
18717;DHT22;9487;50.892;6.906;2022-10-16T05:02:42;14.20;99.90
18717;DHT22;9487;50.892;6.906;2022-10-16T05:05:10;14.30;99.90
18717;DHT22;9487;50.892;6.906;2022-10-16T05:07:37;14.30;99.90
18717;DHT22;9487;50.892;6.906;2022-10-16T05:10:04;14.40;99.90
18717;DHT22;9487;50.892;6.906;2022-10-16T05:12:32;14.50;99.90
18717;DHT22;9487;50.892;6.906;2022-10-16T05:14:58;14.50;99.90
18717;DHT22;9487;50.892;6.906;2022-10-16T05:17:25;14.50;99.90
18717;DHT22;9487;50.892;6.906;2022-10-16T05:19:52;14.60;99.90
18717;DHT22;9487;50.892;6.906;2022-10-16T05:22:20;14.50;99.90
18717;DHT22;9487;50.892;6.906;2022-10-16T05:24:47;14.40;99.90
18717;DHT22;9487;50.892;6.906;2022-10-16T05:27:14;14.40;99.90
18717;DHT22;9487;50.892;6.906;2022-10-16T05:29:44;14.40;99.90
18717;DHT22;9487;50.892;6.906;2022-10-16T05:32:12;14.30;99.90
18717;DHT22;9487;50.892;6.906;2022-10-16T05:34:39;14.20;99.90
18717;DHT22;9487;50.892;6.906;2022-10-16T05:37:06;14.20;99.90
18717;DHT22;9487;50.892;6.906;2022-10-16T05:39:34;14.20;99.90
18717;DHT22;9487;50.892;6.906;2022-10-16T05:42:02;14.30;99.90
18717;DHT22;9487;50.892;6.906;2022-10-16T05:44:29;14.20;99.90
18717;DHT22;9487;50.892;6.906;2022-10-16T05:46:56;14.20;99.90
18717;DHT22;9487;50.892;6.906;2022-10-16T05:49:22;14.20;99.90
18717;DHT22;9487;50.892;6.906;2022-10-16T05:51:49;14.20;99.90
18717;DHT22;9487;50.892;6.906;2022-10-16T05:54:16;14.10;99.90
18717;DHT22;9487;50.892;6.906;2022-10-16T05:56:44;14.10;99.90
18717;DHT22;9487;50.892;6.906;2022-10-16T05:59:11;14.10;99.90
18717;DHT22;9487;50.892;6.906;2022-10-16T06:01:38;14.10;99.90
18717;DHT22;9487;50.892;6.906;2022-10-16T06:04:05;14.00;99.90
18717;DHT22;9487;50.892;6.906;2022-10-16T06:06:31;14.00;99.90
18717;DHT22;9487;50.892;6.906;2022-10-16T06:08:58;14.00;99.90
18717;DHT22;9487;50.892;6.906;2022-10-16T06:11:27;14.00;99.90
18717;DHT22;9487;50.892;6.906;2022-10-16T06:13:57;13.90;99.90
18717;DHT22;9487;50.892;6.906;2022-10-16T06:16:24;13.90;99.90
18717;DHT22;9487;50.892;6.906;2022-10-16T06:18:52;14.00;99.90
18717;DHT22;9487;50.892;6.906;2022-10-16T06:21:21;14.00;99.90
18717;DHT22;9487;50.892;6.906;2022-10-16T06:23:51;14.00;99.90
18717;DHT22;9487;50.892;6.906;2022-10-16T06:26:20;14.00;99.90
18717;DHT22;9487;50.892;6.906;2022-10-16T06:28:47;14.00;99.90
18717;DHT22;9487;50.892;6.906;2022-10-16T06:31:16;14.10;99.90
18717;DHT22;9487;50.892;6.906;2022-10-16T06:33:43;14.10;99.90
18717;DHT22;9487;50.892;6.906;2022-10-16T06:36:12;14.10;99.90
18717;DHT22;9487;50.892;6.906;2022-10-16T06:38:40;14.20;99.90
18717;DHT22;9487;50.892;6.906;2022-10-16T06:41:09;14.20;99.90
18717;DHT22;9487;50.892;6.906;2022-10-16T06:43:36;14.20;99.90
18717;DHT22;9487;50.892;6.906;2022-10-16T06:46:03;14.20;99.90
18717;DHT22;9487;50.892;6.906;2022-10-16T06:48:32;14.60;99.90
18717;DHT22;9487;50.892;6.906;2022-10-16T06:50:59;14.90;99.90
18717;DHT22;9487;50.892;6.906;2022-10-16T06:53:28;15.10;99.90
18717;DHT22;9487;50.892;6.906;2022-10-16T06:55:56;15.00;99.90
18717;DHT22;9487;50.892;6.906;2022-10-16T06:58:23;15.00;99.90
18717;DHT22;9487;50.892;6.906;2022-10-16T07:00:55;14.80;99.90
18717;DHT22;9487;50.892;6.906;2022-10-16T07:03:23;14.80;99.90
18717;DHT22;9487;50.892;6.906;2022-10-16T07:05:51;14.80;99.90
18717;DHT22;9487;50.892;6.906;2022-10-16T07:08:18;14.80;99.90
18717;DHT22;9487;50.892;6.906;2022-10-16T07:10:45;14.70;99.90
18717;DHT22;9487;50.892;6.906;2022-10-16T07:13:11;14.70;99.90
18717;DHT22;9487;50.892;6.906;2022-10-16T07:15:39;14.90;99.90
18717;DHT22;9487;50.892;6.906;2022-10-16T07:18:06;14.90;99.90
18717;DHT22;9487;50.892;6.906;2022-10-16T07:20:33;15.00;99.90
18717;DHT22;9487;50.892;6.906;2022-10-16T07:23:01;15.10;99.90
18717;DHT22;9487;50.892;6.906;2022-10-16T07:25:28;15.00;99.90
18717;DHT22;9487;50.892;6.906;2022-10-16T07:27:55;15.00;99.90
18717;DHT22;9487;50.892;6.906;2022-10-16T07:30:22;15.00;99.90
18717;DHT22;9487;50.892;6.906;2022-10-16T07:32:49;15.00;99.90
18717;DHT22;9487;50.892;6.906;2022-10-16T07:35:16;15.10;99.90
18717;DHT22;9487;50.892;6.906;2022-10-16T07:37:44;15.10;99.90
18717;DHT22;9487;50.892;6.906;2022-10-16T07:40:13;15.20;99.90
18717;DHT22;9487;50.892;6.906;2022-10-16T07:42:40;15.10;99.90
18717;DHT22;9487;50.892;6.906;2022-10-16T07:45:07;15.20;99.90
18717;DHT22;9487;50.892;6.906;2022-10-16T07:47:34;15.20;99.90
18717;DHT22;9487;50.892;6.906;2022-10-16T07:50:01;15.30;99.90
18717;DHT22;9487;50.892;6.906;2022-10-16T07:52:28;15.40;99.90
18717;DHT22;9487;50.892;6.906;2022-10-16T07:54:55;15.50;99.90
18717;DHT22;9487;50.892;6.906;2022-10-16T07:57:23;15.60;99.90
18717;DHT22;9487;50.892;6.906;2022-10-16T07:59:50;15.80;99.90
18717;DHT22;9487;50.892;6.906;2022-10-16T08:02:16;15.80;99.90
18717;DHT22;9487;50.892;6.906;2022-10-16T08:04:43;15.80;99.90
18717;DHT22;9487;50.892;6.906;2022-10-16T08:07:12;15.90;99.90
18717;DHT22;9487;50.892;6.906;2022-10-16T08:09:39;16.10;99.90
18717;DHT22;9487;50.892;6.906;2022-10-16T08:12:07;16.10;99.90
18717;DHT22;9487;50.892;6.906;2022-10-16T08:14:37;16.30;99.90
18717;DHT22;9487;50.892;6.906;2022-10-16T08:17:03;16.30;99.90
18717;DHT22;9487;50.892;6.906;2022-10-16T08:19:30;16.50;99.90
18717;DHT22;9487;50.892;6.906;2022-10-16T08:22:00;16.60;99.90
18717;DHT22;9487;50.892;6.906;2022-10-16T08:24:26;16.70;99.90
18717;DHT22;9487;50.892;6.906;2022-10-16T08:26:56;16.90;99.90
18717;DHT22;9487;50.892;6.906;2022-10-16T08:29:23;17.00;99.90
18717;DHT22;9487;50.892;6.906;2022-10-16T08:31:51;17.20;99.90
18717;DHT22;9487;50.892;6.906;2022-10-16T08:34:18;17.30;99.90
18717;DHT22;9487;50.892;6.906;2022-10-16T08:36:44;17.40;99.90
18717;DHT22;9487;50.892;6.906;2022-10-16T08:39:11;17.40;99.90
18717;DHT22;9487;50.892;6.906;2022-10-16T08:45:15;17.70;99.90
18717;DHT22;9487;50.892;6.906;2022-10-16T08:47:56;17.80;99.90
18717;DHT22;9487;50.892;6.906;2022-10-16T08:50:28;18.00;99.90
18717;DHT22;9487;50.892;6.906;2022-10-16T08:52:55;18.30;99.90
18717;DHT22;9487;50.892;6.906;2022-10-16T08:55:30;18.40;99.90
18717;DHT22;9487;50.892;6.906;2022-10-16T08:57:57;18.30;33.10
18717;DHT22;9487;50.892;6.906;2022-10-16T09:00:24;18.30;35.20
18717;DHT22;9487;50.892;6.906;2022-10-16T09:03:03;18.30;25.10
18717;DHT22;9487;50.892;6.906;2022-10-16T09:05:55;18.20;6.80
18717;DHT22;9487;50.892;6.906;2022-10-16T09:08:31;18.10;10.50
18717;DHT22;9487;50.892;6.906;2022-10-16T09:11:09;18.20;3.80
18717;DHT22;9487;50.892;6.906;2022-10-16T09:13:48;18.30;1.00
18717;DHT22;9487;50.892;6.906;2022-10-16T09:16:19;18.50;1.00
18717;DHT22;9487;50.892;6.906;2022-10-16T09:18:54;18.80;1.00
18717;DHT22;9487;50.892;6.906;2022-10-16T09:21:27;18.80;1.00
18717;DHT22;9487;50.892;6.906;2022-10-16T09:23:57;18.90;1.00
18717;DHT22;9487;50.892;6.906;2022-10-16T09:26:24;18.80;1.00
18717;DHT22;9487;50.892;6.906;2022-10-16T09:28:52;18.80;1.00
18717;DHT22;9487;50.892;6.906;2022-10-16T09:31:21;18.80;1.00
18717;DHT22;9487;50.892;6.906;2022-10-16T09:33:52;18.70;1.00
18717;DHT22;9487;50.892;6.906;2022-10-16T09:36:20;18.70;1.00
18717;DHT22;9487;50.892;6.906;2022-10-16T09:38:48;18.80;1.00
18717;DHT22;9487;50.892;6.906;2022-10-16T09:41:18;19.10;1.00
18717;DHT22;9487;50.892;6.906;2022-10-16T09:43:52;19.30;1.00
18717;DHT22;9487;50.892;6.906;2022-10-16T09:46:24;19.50;1.00
18717;DHT22;9487;50.892;6.906;2022-10-16T09:48:55;19.50;1.00
18717;DHT22;9487;50.892;6.906;2022-10-16T09:51:25;19.60;1.00
18717;DHT22;9487;50.892;6.906;2022-10-16T09:53:56;19.60;1.00
18717;DHT22;9487;50.892;6.906;2022-10-16T09:56:25;19.60;1.00
18717;DHT22;9487;50.892;6.906;2022-10-16T09:58:54;19.60;1.00
18717;DHT22;9487;50.892;6.906;2022-10-16T10:01:23;19.60;1.00
18717;DHT22;9487;50.892;6.906;2022-10-16T10:03:50;19.70;1.00
18717;DHT22;9487;50.892;6.906;2022-10-16T10:06:29;19.80;1.00
18717;DHT22;9487;50.892;6.906;2022-10-16T10:09:02;19.70;1.00
18717;DHT22;9487;50.892;6.906;2022-10-16T10:11:40;19.50;1.00
18717;DHT22;9487;50.892;6.906;2022-10-16T10:14:15;19.40;1.00
18717;DHT22;9487;50.892;6.906;2022-10-16T10:16:47;19.70;1.00
18717;DHT22;9487;50.892;6.906;2022-10-16T10:19:16;19.90;1.00
18717;DHT22;9487;50.892;6.906;2022-10-16T10:21:45;20.00;1.00
18717;DHT22;9487;50.892;6.906;2022-10-16T10:24:13;20.30;1.00
18717;DHT22;9487;50.892;6.906;2022-10-16T10:26:48;20.40;1.00
18717;DHT22;9487;50.892;6.906;2022-10-16T10:29:24;20.40;1.00
18717;DHT22;9487;50.892;6.906;2022-10-16T10:32:02;20.30;1.00
18717;DHT22;9487;50.892;6.906;2022-10-16T10:34:47;20.10;1.00
18717;DHT22;9487;50.892;6.906;2022-10-16T10:37:30;20.00;1.00
18717;DHT22;9487;50.892;6.906;2022-10-16T10:40:02;19.80;1.00
18717;DHT22;9487;50.892;6.906;2022-10-16T10:42:37;19.70;1.00
18717;DHT22;9487;50.892;6.906;2022-10-16T10:45:17;19.80;1.00
18717;DHT22;9487;50.892;6.906;2022-10-16T10:47:59;19.90;1.00
18717;DHT22;9487;50.892;6.906;2022-10-16T10:50:36;20.10;1.00
18717;DHT22;9487;50.892;6.906;2022-10-16T10:53:16;20.20;1.00
18717;DHT22;9487;50.892;6.906;2022-10-16T10:55:51;20.30;1.00
18717;DHT22;9487;50.892;6.906;2022-10-16T10:58:49;20.40;1.00
18717;DHT22;9487;50.892;6.906;2022-10-16T11:01:21;20.20;1.00
18717;DHT22;9487;50.892;6.906;2022-10-16T11:04:14;20.10;1.00
18717;DHT22;9487;50.892;6.906;2022-10-16T11:06:47;20.00;1.00
18717;DHT22;9487;50.892;6.906;2022-10-16T11:09:20;20.00;1.00
18717;DHT22;9487;50.892;6.906;2022-10-16T11:11:50;20.10;1.00
18717;DHT22;9487;50.892;6.906;2022-10-16T11:14:20;20.10;1.00
18717;DHT22;9487;50.892;6.906;2022-10-16T11:16:52;20.10;1.00
18717;DHT22;9487;50.892;6.906;2022-10-16T11:19:29;19.90;1.00
18717;DHT22;9487;50.892;6.906;2022-10-16T11:22:03;19.90;1.00
18717;DHT22;9487;50.892;6.906;2022-10-16T11:24:40;19.90;1.00
18717;DHT22;9487;50.892;6.906;2022-10-16T11:27:14;20.00;1.00
18717;DHT22;9487;50.892;6.906;2022-10-16T11:29:47;20.30;99.90
18717;DHT22;9487;50.892;6.906;2022-10-16T11:32:20;20.40;99.90
18717;DHT22;9487;50.892;6.906;2022-10-16T11:34:52;20.50;99.90
18717;DHT22;9487;50.892;6.906;2022-10-16T11:37:23;20.70;99.90
18717;DHT22;9487;50.892;6.906;2022-10-16T11:39:56;20.80;99.90
18717;DHT22;9487;50.892;6.906;2022-10-16T11:42:30;21.00;99.90
18717;DHT22;9487;50.892;6.906;2022-10-16T11:45:03;21.10;99.90
18717;DHT22;9487;50.892;6.906;2022-10-16T11:47:35;21.20;1.00
18717;DHT22;9487;50.892;6.906;2022-10-16T11:50:09;21.20;1.00
18717;DHT22;9487;50.892;6.906;2022-10-16T11:52:44;21.10;1.00
18717;DHT22;9487;50.892;6.906;2022-10-16T11:55:18;21.10;94.70
18717;DHT22;9487;50.892;6.906;2022-10-16T11:57:49;21.00;15.80
18717;DHT22;9487;50.892;6.906;2022-10-16T12:00:21;20.90;80.80
18717;DHT22;9487;50.892;6.906;2022-10-16T12:02:56;20.80;99.90
18717;DHT22;9487;50.892;6.906;2022-10-16T12:05:35;20.70;97.30
18717;DHT22;9487;50.892;6.906;2022-10-16T12:08:10;20.50;99.90
18717;DHT22;9487;50.892;6.906;2022-10-16T12:10:41;20.40;99.90
18717;DHT22;9487;50.892;6.906;2022-10-16T12:13:33;20.30;99.90
18717;DHT22;9487;50.892;6.906;2022-10-16T12:16:19;20.20;99.90
18717;DHT22;9487;50.892;6.906;2022-10-16T12:18:47;20.20;99.90
18717;DHT22;9487;50.892;6.906;2022-10-16T12:21:16;20.20;99.90
18717;DHT22;9487;50.892;6.906;2022-10-16T12:23:49;20.10;99.90
18717;DHT22;9487;50.892;6.906;2022-10-16T12:26:25;20.10;1.00
18717;DHT22;9487;50.892;6.906;2022-10-16T12:28:53;20.10;1.00
18717;DHT22;9487;50.892;6.906;2022-10-16T12:31:21;20.20;99.90
18717;DHT22;9487;50.892;6.906;2022-10-16T12:33:57;20.30;99.90
18717;DHT22;9487;50.892;6.906;2022-10-16T12:36:29;20.30;99.90
18717;DHT22;9487;50.892;6.906;2022-10-16T12:38:56;20.50;1.00
18717;DHT22;9487;50.892;6.906;2022-10-16T12:41:29;20.70;1.00
18717;DHT22;9487;50.892;6.906;2022-10-16T12:43:56;20.80;99.90
18717;DHT22;9487;50.892;6.906;2022-10-16T12:46:35;20.90;81.10
18717;DHT22;9487;50.892;6.906;2022-10-16T12:49:20;20.90;99.90
18717;DHT22;9487;50.892;6.906;2022-10-16T12:51:47;21.00;99.90
18717;DHT22;9487;50.892;6.906;2022-10-16T12:54:17;21.00;99.90
18717;DHT22;9487;50.892;6.906;2022-10-16T12:56:55;21.10;99.90
18717;DHT22;9487;50.892;6.906;2022-10-16T12:59:33;21.30;56.70
18717;DHT22;9487;50.892;6.906;2022-10-16T13:02:19;21.40;1.00
18717;DHT22;9487;50.892;6.906;2022-10-16T13:05:04;21.30;1.00
18717;DHT22;9487;50.892;6.906;2022-10-16T13:07:51;21.20;87.40
18717;DHT22;9487;50.892;6.906;2022-10-16T13:10:25;21.10;99.90
18717;DHT22;9487;50.892;6.906;2022-10-16T13:13:13;21.10;99.90
18717;DHT22;9487;50.892;6.906;2022-10-16T13:15:57;21.00;99.90
18717;DHT22;9487;50.892;6.906;2022-10-16T13:18:29;21.10;99.90
18717;DHT22;9487;50.892;6.906;2022-10-16T13:21:10;21.10;99.90
18717;DHT22;9487;50.892;6.906;2022-10-16T13:23:46;21.00;99.90
18717;DHT22;9487;50.892;6.906;2022-10-16T13:26:22;20.90;99.90
18717;DHT22;9487;50.892;6.906;2022-10-16T13:28:52;20.80;99.90
18717;DHT22;9487;50.892;6.906;2022-10-16T13:31:21;20.90;99.90
18717;DHT22;9487;50.892;6.906;2022-10-16T13:33:50;21.00;99.90
18717;DHT22;9487;50.892;6.906;2022-10-16T13:36:21;21.20;99.90
18717;DHT22;9487;50.892;6.906;2022-10-16T13:38:49;21.30;99.90
18717;DHT22;9487;50.892;6.906;2022-10-16T13:41:25;21.20;99.90
18717;DHT22;9487;50.892;6.906;2022-10-16T13:43:54;21.00;99.90
18717;DHT22;9487;50.892;6.906;2022-10-16T13:46:24;20.80;99.90
18717;DHT22;9487;50.892;6.906;2022-10-16T13:48:58;20.70;99.90
18717;DHT22;9487;50.892;6.906;2022-10-16T13:51:25;20.70;99.90
18717;DHT22;9487;50.892;6.906;2022-10-16T13:53:55;20.60;99.90
18717;DHT22;9487;50.892;6.906;2022-10-16T13:56:25;20.60;99.90
18717;DHT22;9487;50.892;6.906;2022-10-16T13:59:00;20.60;99.90
18717;DHT22;9487;50.892;6.906;2022-10-16T14:01:29;20.60;99.90
18717;DHT22;9487;50.892;6.906;2022-10-16T14:04:02;20.60;99.90
18717;DHT22;9487;50.892;6.906;2022-10-16T14:06:31;20.70;1.00
18717;DHT22;9487;50.892;6.906;2022-10-16T14:09:01;20.70;1.00
18717;DHT22;9487;50.892;6.906;2022-10-16T14:11:31;20.60;1.00
18717;DHT22;9487;50.892;6.906;2022-10-16T14:14:00;20.50;1.00
18717;DHT22;9487;50.892;6.906;2022-10-16T14:16:30;20.50;1.00
18717;DHT22;9487;50.892;6.906;2022-10-16T14:19:00;20.50;1.00
18717;DHT22;9487;50.892;6.906;2022-10-16T14:21:28;20.50;1.00
18717;DHT22;9487;50.892;6.906;2022-10-16T14:23:55;20.50;1.00
18717;DHT22;9487;50.892;6.906;2022-10-16T14:26:23;20.50;1.00
18717;DHT22;9487;50.892;6.906;2022-10-16T14:29:10;20.50;1.00
18717;DHT22;9487;50.892;6.906;2022-10-16T14:31:38;20.50;1.00
18717;DHT22;9487;50.892;6.906;2022-10-16T14:34:23;20.50;1.00
18717;DHT22;9487;50.892;6.906;2022-10-16T14:36:51;20.50;1.00
18717;DHT22;9487;50.892;6.906;2022-10-16T14:39:20;20.50;1.00
18717;DHT22;9487;50.892;6.906;2022-10-16T14:41:48;20.50;1.00
18717;DHT22;9487;50.892;6.906;2022-10-16T14:44:18;20.40;1.00
18717;DHT22;9487;50.892;6.906;2022-10-16T14:46:45;20.30;1.00
18717;DHT22;9487;50.892;6.906;2022-10-16T14:49:18;20.30;1.00
18717;DHT22;9487;50.892;6.906;2022-10-16T14:51:46;20.30;1.00
18717;DHT22;9487;50.892;6.906;2022-10-16T14:54:14;20.30;1.00
18717;DHT22;9487;50.892;6.906;2022-10-16T14:56:46;20.30;1.00
18717;DHT22;9487;50.892;6.906;2022-10-16T14:59:17;20.20;1.00
18717;DHT22;9487;50.892;6.906;2022-10-16T15:01:45;20.30;1.00
18717;DHT22;9487;50.892;6.906;2022-10-16T15:04:12;20.20;1.00
18717;DHT22;9487;50.892;6.906;2022-10-16T15:06:39;20.20;1.00
18717;DHT22;9487;50.892;6.906;2022-10-16T15:09:06;20.20;1.00
18717;DHT22;9487;50.892;6.906;2022-10-16T15:11:33;20.20;1.00
18717;DHT22;9487;50.892;6.906;2022-10-16T15:14:00;20.20;1.00
18717;DHT22;9487;50.892;6.906;2022-10-16T15:16:28;20.10;1.00
18717;DHT22;9487;50.892;6.906;2022-10-16T15:18:55;20.00;1.00
18717;DHT22;9487;50.892;6.906;2022-10-16T15:21:25;19.90;1.00
18717;DHT22;9487;50.892;6.906;2022-10-16T15:23:53;19.90;1.00
18717;DHT22;9487;50.892;6.906;2022-10-16T15:26:22;19.90;1.00
18717;DHT22;9487;50.892;6.906;2022-10-16T15:28:48;19.70;1.00
18717;DHT22;9487;50.892;6.906;2022-10-16T15:31:15;19.70;1.00
18717;DHT22;9487;50.892;6.906;2022-10-16T15:33:44;19.70;1.00
18717;DHT22;9487;50.892;6.906;2022-10-16T15:36:16;19.60;1.00
18717;DHT22;9487;50.892;6.906;2022-10-16T15:38:43;19.50;1.00
18717;DHT22;9487;50.892;6.906;2022-10-16T15:41:10;19.50;1.00
18717;DHT22;9487;50.892;6.906;2022-10-16T15:43:37;19.50;1.00
18717;DHT22;9487;50.892;6.906;2022-10-16T15:46:06;19.40;1.00
18717;DHT22;9487;50.892;6.906;2022-10-16T15:48:34;19.40;1.00
18717;DHT22;9487;50.892;6.906;2022-10-16T15:51:05;19.40;1.00
18717;DHT22;9487;50.892;6.906;2022-10-16T15:53:32;19.30;1.00
18717;DHT22;9487;50.892;6.906;2022-10-16T15:56:01;19.30;1.00
18717;DHT22;9487;50.892;6.906;2022-10-16T15:58:28;19.20;1.00
18717;DHT22;9487;50.892;6.906;2022-10-16T16:00:55;19.20;1.00
18717;DHT22;9487;50.892;6.906;2022-10-16T16:03:22;19.20;1.00
18717;DHT22;9487;50.892;6.906;2022-10-16T16:05:49;19.20;1.00
18717;DHT22;9487;50.892;6.906;2022-10-16T16:08:17;19.10;1.00
18717;DHT22;9487;50.892;6.906;2022-10-16T16:10:44;19.10;1.00